• Join FlightAware (Why Join?)
  • Login
  • US Flag 
09:56AM EDT


 

Airport Tracker/Info


-or-


 

Live Flight TrackerFlight Track Log ✈ VH-WPL ✈ 23-Jul-2013 ✈ YBAF - YBAF

Flight Track Log - Related Links

Times and Time Zones

All times are in EDT time to prevent confusion due to time zone crossing. See the VH-WPL flight status page for this flight to view local times or setup timezone preferences in your user account.

Time Position Orientation Groundspeed Altitude Reporting Facility
EDT Latitude Longitude Course Direction KTS MPH feet Rate Location/Type
03:57AM -27.5604 152.9972 189° South 72 83 1,600  Level Aus ATC (RADAR)
03:58AM -27.5776 152.9940 189° South 89 102 1,500 120 Descending Aus ATC (RADAR)
03:58AM -27.5886 152.9985 160° South 84 97 1,800 660 Climbing Aus ATC (RADAR)
03:59AM -27.6052 152.9966 186° South 72 83 2,400 660 Climbing Aus ATC (RADAR)
04:00AM -27.6246 152.9971 179° South 77 89 3,000 600 Climbing Aus ATC (RADAR)
04:01AM -27.6441 153.0000 172° South 78 90 3,500 600 Climbing Aus ATC (RADAR)
04:02AM -27.6579 153.0014 175° South 74 85 4,000 660 Climbing Aus ATC (RADAR)
04:02AM -27.6742 153.0022 177° South 70 81 4,500 600 Climbing Aus ATC (RADAR)
04:03AM -27.6857 153.0013 184° South 71 82 4,900 660 Climbing Aus ATC (RADAR)
04:04AM -27.7052 152.9997 184° South 69 79 5,600 360 Climbing Aus ATC (RADAR)
04:05AM -27.7218 152.9978 186° South 81 93 5,600  Level Aus ATC (RADAR)
04:06AM -27.7455 152.9896 197° South 92 106 5,700  Climbing Aus ATC (RADAR)
04:07AM -27.7679 152.9783 204° Southwest 87 100 5,700  Level Aus ATC (RADAR)
04:07AM -27.7813 152.9736 197° South 87 100 5,700  Level Aus ATC (RADAR)
04:08AM -27.7999 152.9661 199° South 86 99 5,700 -120 Level Aus ATC (RADAR)
04:09AM -27.8141 152.9603 200° South 81 93 5,600 -120 Descending Aus ATC (RADAR)
04:09AM -27.8292 152.9543 199° South 86 99 5,600 60 Level Aus ATC (RADAR)
04:10AM -27.8505 152.9498 190° South 82 94 5,700 -60 Climbing Aus ATC (RADAR)
04:14AM -27.9669 152.9416 303° West 5,500 -60 Descending Aus ATC (Calculated)
04:16AM -27.9666 152.9416 North  Level Estimated
04:17AM -27.9665 152.9416 North  Level Estimated
04:18AM -27.9663 152.9417 North  Level Estimated
04:19AM -27.9662 152.9417 North  Level Estimated
04:19AM -27.9142 152.8125 304° West 5,500  Level Aus ATC (Calculated)
04:21AM -27.9140 152.8126 27° Northeast  Level Estimated
04:22AM -27.9139 152.8127 27° Northeast  Level Estimated
04:23AM -27.9137 152.8128 27° Northeast  Level Estimated
04:24AM -27.9136 152.8128 27° Northeast  Level Estimated
04:25AM -27.9134 152.8129 27° Northeast  Level Estimated
04:26AM -27.9133 152.8130 27° Northeast  Level Estimated
04:27AM -27.9132 152.8131 27° Northeast  Level Estimated
04:27AM -27.8217 152.5868 309° West 5,500  Level Aus ATC (Calculated)
04:29AM -27.8216 152.5871 56° Northeast  Level Estimated
04:30AM -27.8215 152.5872 56° Northeast  Level Estimated
04:31AM -27.8214 152.5873 56° Northeast  Level Estimated
04:32AM -27.8213 152.5875 56° Northeast  Level Estimated
04:33AM -27.8213 152.5876 56° Northeast  Level Estimated
04:34AM -27.8212 152.5878 56° Northeast  Level Estimated
04:35AM -27.8211 152.5879 56° Northeast  Level Estimated
04:36AM -27.8210 152.5880 56° Northeast  Level Estimated
04:37AM -27.8209 152.5882 56° Northeast  Level Estimated
04:38AM -27.8209 152.5883 56° Northeast  Level Estimated
04:39AM -27.8208 152.5885 56° Northeast  Level Estimated
04:40AM -27.8207 152.5886 56° Northeast  Level Estimated
04:41AM -27.8206 152.5887 56° Northeast  Level Estimated
04:42AM -27.8205 152.5889 56° Northeast  Level Estimated
04:43AM -27.8204 152.5890 56° Northeast  Level Estimated
04:44AM -27.8204 152.5892 56° Northeast  Level Estimated
04:45AM -27.8203 152.5893 56° Northeast  Level Estimated
04:46AM -27.8202 152.5894 56° Northeast  Level Estimated
04:47AM -27.8201 152.5896 56° Northeast  Level Estimated
04:47AM -27.6123 152.0804 58° Northeast 5,500  Level Aus ATC (Calculated)
04:49AM -27.6123 152.0807 87° East  Level Estimated
04:50AM -27.6123 152.0809 87° East  Level Estimated
04:51AM -27.6123 152.0810 87° East  Level Estimated
04:52AM -27.6123 152.0812 87° East  Level Estimated
04:52AM -27.5421 151.9120 90° East 5,500  Level Aus ATC (Calculated)
04:53AM -27.5421 151.9120 90° East 6,500 -60 Climbing Aus ATC (Calculated)
04:55AM -27.5421 151.9123 92° East  Level Estimated
04:56AM -27.5421 151.9125 92° East  Level Estimated
04:57AM -27.5421 151.9127 92° East  Level Estimated
04:58AM -27.5421 151.9128 92° East  Level Estimated
04:59AM -27.5422 151.9130 92° East  Level Estimated
05:00AM -27.5422 151.9132 92° East  Level Estimated
05:01AM -27.5422 151.9133 92° East  Level Estimated
05:02AM -27.5422 151.9135 92° East  Level Estimated
05:03AM -27.5422 151.9137 92° East  Level Estimated
05:04AM -27.5422 151.9139 92° East  Level Estimated
05:05AM -27.5422 151.9140 92° East  Level Estimated
05:06AM -27.5422 151.9142 92° East  Level Estimated
05:07AM -27.5422 151.9144 92° East  Level Estimated
05:08AM -27.5422 151.9145 92° East  Level Estimated
05:08AM -27.5924 152.3138 296° West 6,500  Level Aus ATC (Calculated)
05:09AM -27.5422 151.9147 92° East  Level Estimated
05:10AM -27.5924 152.3140 88° East  Level Estimated
05:11AM -27.5924 152.3142 88° East  Level Estimated
05:12AM -27.5924 152.3143 88° East  Level Estimated
05:13AM -27.5923 152.3145 88° East  Level Estimated
05:14AM -27.5923 152.3147 88° East  Level Estimated
05:15AM -27.5923 152.3148 88° East  Level Estimated
05:16AM -27.5923 152.3150 88° East  Level Estimated
05:17AM -27.5923 152.3152 88° East  Level Estimated
05:18AM -27.5923 152.3154 88° East  Level Estimated
05:18AM -27.6293 152.6154 283° West 6,500  Level Aus ATC (Calculated)
05:19AM -27.5439 152.2023 88° East 108 124 5,400 -600 Descending Aus ATC (RADAR)
05:20AM -27.5524 152.2261 112° Southeast 111 128 5,500 120 Climbing Aus ATC (RADAR)
05:20AM -27.5578 152.2447 108° East 108 124 5,600 60 Climbing Aus ATC (RADAR)
05:21AM -27.5681 152.2707 114° Southeast 124 143 5,600  Level Aus ATC (RADAR)
05:21AM -27.5745 152.2878 113° Southeast 119 137 5,600 -120 Level Aus ATC (RADAR)
05:22AM -27.5808 152.3085 109° East 118 136 5,500 -120 Descending Aus ATC (RADAR)
05:23AM -27.5859 152.3333 103° East 121 139 5,500  Level Aus ATC (RADAR)
05:23AM -27.5877 152.3564 95° East 127 146 5,500 -120 Level Aus ATC (RADAR)
05:24AM -27.5893 152.3801 94° East 129 148 5,400 60 Descending Aus ATC (RADAR)
05:24AM -27.5910 152.4032 95° East 127 146 5,600 120 Climbing Aus ATC (RADAR)
05:25AM -27.5921 152.4269 93° East 128 147 5,600  Level Aus ATC (RADAR)
05:26AM -27.5930 152.4630 92° East 125 144 5,600 -60 Level Aus ATC (RADAR)
05:27AM -27.5943 152.5035 92° East 128 147 5,500 -180 Descending Aus ATC (RADAR)
05:28AM -27.5953 152.5332 92° East 127 146 5,300 -420 Descending Aus ATC (RADAR)
05:28AM -27.5969 152.5546 95° East 116 133 5,000 -360 Descending Aus ATC (RADAR)
05:29AM -27.5996 152.5740 99° East 109 125 4,900 -360 Descending Aus ATC (RADAR)
05:29AM -27.6032 152.5974 100° East 115 132 4,600 -480 Descending Aus ATC (RADAR)
05:30AM -27.6059 152.6182 98° East 114 131 4,300 -300 Descending Aus ATC (RADAR)
05:31AM -27.6138 152.6598 102° East 119 137 4,100 -180 Descending Aus ATC (RADAR)
05:32AM -27.6205 152.6906 104° East 119 137 4,000 -60 Descending Aus ATC (RADAR)
05:33AM -27.6253 152.7208 100° East 113 130 4,000  Level Aus ATC (RADAR)
05:33AM -27.6192 152.7431 73° East 121 139 4,000  Level Aus ATC (RADAR)
05:34AM -27.6115 152.7732 74° East 131 151 4,000 -60 Level Aus ATC (RADAR)
05:35AM -27.6004 152.8144 73° East 138 159 3,900  Descending Aus ATC (RADAR)
05:36AM -27.5903 152.8516 73° East 134 154 4,000  Climbing Aus ATC (RADAR)
05:37AM -27.5848 152.8712 72° East 131 151 3,900 -300 Descending Aus ATC (RADAR)
05:37AM -27.5771 152.8929 68° East 127 146 3,700 -300 Descending Aus ATC (RADAR)
05:38AM -27.5718 152.9210 78° East 119 137 3,500 -480 Descending Aus ATC (RADAR)
05:39AM -27.5712 152.9441 88° East 124 143 3,100 -720 Descending Aus ATC (RADAR)
05:39AM -27.5735 152.9738 95° East 127 146 2,600 -780 Descending Aus ATC (RADAR)
05:40AM -27.5819 153.0126 104° East 124 143 1,800 -600 Descending Aus ATC (RADAR)
05:41AM -27.5660 153.0281 41° Northeast 123 142 1,600 -420 Descending Aus ATC (RADAR)
05:42AM -27.5585 153.0012 287° West 84 97 1,100 -540 Descending Aus ATC (RADAR)